createdAt,value
2022-08-02T00:00:57.266Z,17.86
2022-08-02T00:03:24.639Z,17.85
2022-08-02T00:05:53.592Z,17.79
2022-08-02T00:08:21.716Z,17.74
2022-08-02T00:10:48.969Z,17.72
2022-08-02T00:13:16.010Z,17.69
2022-08-02T00:15:43.017Z,17.67
2022-08-02T00:18:10.090Z,17.67
2022-08-02T00:20:37.327Z,17.63
2022-08-02T00:23:04.410Z,17.56
2022-08-02T00:25:31.400Z,17.60
2022-08-02T00:27:58.396Z,17.57
2022-08-02T00:30:25.609Z,17.50
2022-08-02T00:32:52.696Z,17.43
2022-08-02T00:35:19.895Z,17.24
2022-08-02T00:37:46.999Z,17.13
2022-08-02T00:40:14.094Z,17.06
2022-08-02T00:42:41.404Z,16.99
2022-08-02T00:45:08.608Z,16.94
2022-08-02T00:47:35.801Z,16.94
2022-08-02T00:50:03.265Z,16.97
2022-08-02T00:52:30.313Z,17.06
2022-08-02T00:54:57.637Z,16.92
2022-08-02T00:57:24.696Z,16.85
2022-08-02T00:59:51.649Z,16.82
2022-08-02T01:02:18.782Z,16.87
2022-08-02T01:04:45.967Z,16.82
2022-08-02T01:07:14.602Z,16.80
2022-08-02T01:09:42.672Z,16.80
2022-08-02T01:12:10.234Z,16.85
2022-08-02T01:14:37.583Z,16.86
2022-08-02T01:17:16.300Z,16.82
2022-08-02T01:19:46.303Z,16.86
2022-08-02T01:22:34.523Z,16.98
2022-08-02T01:25:15.214Z,16.88
2022-08-02T01:27:57.880Z,16.83
2022-08-02T01:30:25.848Z,16.76
2022-08-02T01:32:55.501Z,16.73
2022-08-02T01:35:26.409Z,16.63
2022-08-02T01:37:56.636Z,16.55
2022-08-02T01:40:28.125Z,16.54
2022-08-02T01:42:55.800Z,16.48
2022-08-02T01:45:24.080Z,16.51
2022-08-02T01:47:51.768Z,16.56
2022-08-02T01:50:21.638Z,16.55
2022-08-02T01:52:53.483Z,16.52
2022-08-02T01:55:35.032Z,16.51
2022-08-02T01:58:24.912Z,16.41
2022-08-02T02:00:53.911Z,16.42
2022-08-02T02:03:22.702Z,16.45
2022-08-02T02:05:50.386Z,16.39
2022-08-02T02:08:27.012Z,16.35
2022-08-02T02:10:56.137Z,16.36
2022-08-02T02:13:33.313Z,16.33
2022-08-02T02:16:03.217Z,16.29
2022-08-02T02:18:30.859Z,16.29
2022-08-02T02:20:57.979Z,16.28
2022-08-02T02:23:25.840Z,16.16
2022-08-02T02:25:54.967Z,16.10
2022-08-02T02:28:30.249Z,16.02
2022-08-02T02:31:05.182Z,16.04
2022-08-02T02:33:33.676Z,16.14
2022-08-02T02:36:02.243Z,16.22
2022-08-02T02:38:31.290Z,16.13
2022-08-02T02:41:00.895Z,16.16
2022-08-02T02:43:28.675Z,16.07
2022-08-02T02:45:56.561Z,15.99
2022-08-02T02:48:25.098Z,15.95
2022-08-02T02:50:52.858Z,15.94
2022-08-02T02:53:20.782Z,15.90
2022-08-02T02:56:01.778Z,15.78
2022-08-02T02:58:30.554Z,15.82
2022-08-02T03:01:16.277Z,15.94
2022-08-02T03:03:46.747Z,15.87
2022-08-02T03:06:15.770Z,15.86
2022-08-02T03:08:43.532Z,15.78
2022-08-02T03:11:11.172Z,15.80
2022-08-02T03:13:39.050Z,15.77
2022-08-02T03:16:06.555Z,15.72
2022-08-02T03:18:36.986Z,15.70
2022-08-02T03:21:05.542Z,15.73
2022-08-02T03:23:33.055Z,15.80
2022-08-02T03:26:00.937Z,15.87
2022-08-02T03:28:27.947Z,15.94
2022-08-02T03:30:55.038Z,15.98
2022-08-02T03:33:22.385Z,16.01
2022-08-02T03:35:50.779Z,15.93
2022-08-02T03:38:19.034Z,15.88
2022-08-02T03:40:46.446Z,15.75
2022-08-02T03:43:14.470Z,15.53
2022-08-02T03:45:47.746Z,15.46
2022-08-02T03:48:34.164Z,15.44
2022-08-02T03:51:02.527Z,15.43
2022-08-02T03:53:30.211Z,15.48
2022-08-02T03:55:57.769Z,15.54
2022-08-02T03:58:24.965Z,15.61
2022-08-02T04:00:53.183Z,15.67
2022-08-02T04:03:20.359Z,15.74
2022-08-02T04:05:59.405Z,15.69
2022-08-02T04:08:36.814Z,15.66
2022-08-02T04:11:25.240Z,15.58
2022-08-02T04:13:53.489Z,15.65
2022-08-02T04:16:29.184Z,15.59
2022-08-02T04:18:58.368Z,15.60
2022-08-02T04:21:27.106Z,15.68
2022-08-02T04:24:18.630Z,15.73
2022-08-02T04:26:48.812Z,15.85
2022-08-02T04:29:17.643Z,15.85
2022-08-02T04:31:45.216Z,15.91
2022-08-02T04:34:15.043Z,15.84
2022-08-02T04:36:43.255Z,15.91
2022-08-02T04:39:10.448Z,15.88
2022-08-02T04:41:44.014Z,15.88
2022-08-02T04:44:11.885Z,15.84
2022-08-02T04:46:39.269Z,15.80
2022-08-02T04:49:06.748Z,15.82
2022-08-02T04:51:41.054Z,15.85
2022-08-02T04:54:10.032Z,15.85
2022-08-02T04:56:38.407Z,15.91
2022-08-02T04:59:05.886Z,15.89
2022-08-02T05:01:32.915Z,15.99
2022-08-02T05:03:59.925Z,16.09
2022-08-02T05:06:26.975Z,16.20
2022-08-02T05:08:54.278Z,16.32
2022-08-02T05:11:36.198Z,16.39
2022-08-02T05:14:06.950Z,16.44
2022-08-02T05:16:34.035Z,16.50
2022-08-02T05:19:02.328Z,16.56
2022-08-02T05:21:30.282Z,16.61
2022-08-02T05:23:57.342Z,16.62
2022-08-02T05:26:24.391Z,16.65
2022-08-02T05:28:51.378Z,16.65
2022-08-02T05:31:18.597Z,16.59
2022-08-02T05:33:45.712Z,16.64
2022-08-02T05:36:12.728Z,16.76
2022-08-02T05:38:39.747Z,16.94
2022-08-02T05:41:09.124Z,17.17
2022-08-02T05:43:36.150Z,17.46
2022-08-02T05:46:03.146Z,17.74
2022-08-02T05:48:32.245Z,17.99
2022-08-02T05:51:02.859Z,18.07
2022-08-02T05:53:37.317Z,17.89
2022-08-02T05:56:19.284Z,17.70
2022-08-02T05:59:05.582Z,17.90
2022-08-02T06:01:33.966Z,18.07
2022-08-02T06:04:02.154Z,18.29
2022-08-02T06:06:29.949Z,18.45
2022-08-02T06:08:59.601Z,18.71
2022-08-02T06:11:34.022Z,18.99
2022-08-02T06:14:01.989Z,19.08
2022-08-02T06:16:31.743Z,19.07
2022-08-02T06:19:00.693Z,19.20
2022-08-02T06:22:31.323Z,19.34
2022-08-02T06:24:18.597Z,19.42
2022-08-02T06:26:45.951Z,19.44
2022-08-02T06:29:13.619Z,19.45
2022-08-02T06:31:41.377Z,19.76
2022-08-02T06:34:12.293Z,19.96
2022-08-02T06:36:57.135Z,20.03
2022-08-02T06:39:32.482Z,20.34
2022-08-02T06:42:02.796Z,20.33
2022-08-02T06:44:48.743Z,20.48
2022-08-02T06:47:18.896Z,20.32
2022-08-02T06:49:51.751Z,20.26
2022-08-02T06:52:25.645Z,20.21
2022-08-02T06:54:55.621Z,20.38
2022-08-02T06:57:22.774Z,20.72
2022-08-02T06:59:49.820Z,20.98
2022-08-02T07:02:16.868Z,21.11
2022-08-02T07:04:43.917Z,21.06
2022-08-02T07:07:10.946Z,21.04
2022-08-02T07:09:38.179Z,21.14
2022-08-02T07:12:05.453Z,21.04
2022-08-02T07:14:32.530Z,21.33
2022-08-02T07:17:03.242Z,21.51
2022-08-02T07:19:36.152Z,21.36
2022-08-02T07:22:05.791Z,21.37
2022-08-02T07:24:32.873Z,21.48
2022-08-02T07:27:15.419Z,21.61
2022-08-02T07:29:46.221Z,21.92
2022-08-02T07:32:20.953Z,22.00
2022-08-02T07:34:50.929Z,21.91
2022-08-02T07:37:35.327Z,22.11
2022-08-02T07:40:14.106Z,22.31
2022-08-02T07:42:43.240Z,22.42
2022-08-02T07:45:10.796Z,22.73
2022-08-02T07:47:38.796Z,23.02
2022-08-02T07:50:06.427Z,23.00
2022-08-02T07:52:34.275Z,22.94
2022-08-02T07:55:01.623Z,22.95
2022-08-02T07:57:28.652Z,22.75
2022-08-02T07:59:55.595Z,22.90
2022-08-02T08:02:24.705Z,22.93
2022-08-02T08:04:52.482Z,22.78
2022-08-02T08:07:20.386Z,22.94
2022-08-02T08:09:48.248Z,23.04
2022-08-02T08:12:16.413Z,23.18
2022-08-02T08:14:44.283Z,23.18
2022-08-02T08:17:11.383Z,23.23
2022-08-02T08:19:51.212Z,23.26
2022-08-02T08:22:20.040Z,23.32
2022-08-02T08:24:48.340Z,23.38
2022-08-02T08:27:16.157Z,23.55
2022-08-02T08:29:43.531Z,23.80
2022-08-02T08:32:16.266Z,23.83
2022-08-02T08:34:48.731Z,23.72
2022-08-02T08:37:16.924Z,23.38
2022-08-02T08:39:57.315Z,23.22
2022-08-02T08:42:30.427Z,23.31
2022-08-02T08:44:58.009Z,23.22
2022-08-02T08:47:33.544Z,23.33
2022-08-02T08:50:14.371Z,23.04
2022-08-02T08:52:48.877Z,23.29
2022-08-02T08:55:18.863Z,23.39
2022-08-02T08:57:46.220Z,23.55
2022-08-02T09:00:13.586Z,23.79
2022-08-02T09:02:42.675Z,24.01
2022-08-02T09:05:13.967Z,24.13
2022-08-02T09:07:42.851Z,24.40
2022-08-02T09:10:28.821Z,24.65
2022-08-02T09:13:38.283Z,24.80
2022-08-02T09:16:14.333Z,24.62
2022-08-02T09:18:47.347Z,24.69
2022-08-02T09:21:15.917Z,24.82
2022-08-02T09:23:47.259Z,24.84
2022-08-02T09:26:15.844Z,25.09
2022-08-02T09:28:44.595Z,25.27
2022-08-02T09:31:12.919Z,25.43
2022-08-02T09:33:40.999Z,25.62
2022-08-02T09:36:09.414Z,25.72
2022-08-02T09:38:37.074Z,25.87
2022-08-02T09:41:04.998Z,25.88
2022-08-02T09:43:36.266Z,25.91
2022-08-02T09:46:18.857Z,26.08
2022-08-02T09:48:54.511Z,26.02
2022-08-02T09:51:23.326Z,26.04
2022-08-02T09:54:05.942Z,26.13
2022-08-02T09:56:41.914Z,26.63
2022-08-02T09:59:09.077Z,26.50
2022-08-02T10:01:37.470Z,26.54
2022-08-02T10:04:06.253Z,26.60
2022-08-02T10:06:34.126Z,26.59
2022-08-02T10:09:01.582Z,26.54
2022-08-02T10:11:28.730Z,26.62
2022-08-02T10:13:56.045Z,26.66
2022-08-02T10:16:24.406Z,26.70
2022-08-02T10:18:52.838Z,26.96
2022-08-02T10:21:46.802Z,26.94
2022-08-02T10:24:15.616Z,26.87
2022-08-02T10:26:43.952Z,27.00
2022-08-02T10:29:12.032Z,26.72
2022-08-02T10:31:43.716Z,26.77
2022-08-02T10:34:11.478Z,26.90
2022-08-02T10:36:39.819Z,27.21
2022-08-02T10:39:07.061Z,27.09
2022-08-02T10:41:43.980Z,27.05
2022-08-02T10:44:24.334Z,26.97
2022-08-02T10:46:52.209Z,27.29
2022-08-02T10:52:08.419Z,27.51
2022-08-02T10:54:37.338Z,27.42
2022-08-02T10:57:15.380Z,27.48
2022-08-02T10:59:43.415Z,27.54
2022-08-02T11:02:11.484Z,27.92
2022-08-02T11:04:41.480Z,28.01
2022-08-02T11:07:08.574Z,27.73
2022-08-02T11:09:36.158Z,27.75
2022-08-02T11:12:09.068Z,27.67
2022-08-02T11:14:38.764Z,27.59
2022-08-02T11:17:06.904Z,27.37
2022-08-02T11:19:35.156Z,26.93
2022-08-02T11:22:03.837Z,26.26
2022-08-02T11:24:32.215Z,26.11
2022-08-02T11:27:00.335Z,26.70
2022-08-02T11:29:49.597Z,27.19
2022-08-02T11:32:22.402Z,27.45
2022-08-02T11:34:58.979Z,27.60
2022-08-02T11:37:29.163Z,27.40
2022-08-02T11:39:56.203Z,27.17
2022-08-02T11:42:31.248Z,27.15
2022-08-02T11:44:58.300Z,27.17
2022-08-02T11:47:25.651Z,27.53
2022-08-02T11:49:52.660Z,27.84
2022-08-02T11:52:20.166Z,28.15
2022-08-02T11:54:49.211Z,28.07
2022-08-02T11:57:20.092Z,28.23
2022-08-02T11:59:52.461Z,28.38
2022-08-02T12:02:20.749Z,28.19
2022-08-02T12:04:58.335Z,28.24
2022-08-02T12:07:34.375Z,28.22
2022-08-02T12:10:05.726Z,28.02
2022-08-02T12:12:33.233Z,28.33
2022-08-02T12:15:00.428Z,28.54
2022-08-02T12:17:47.673Z,28.17
2022-08-02T12:20:14.937Z,28.29
2022-08-02T12:22:42.251Z,28.48
2022-08-02T12:25:33.943Z,28.93
2022-08-02T12:28:17.586Z,28.88
2022-08-02T12:30:52.664Z,28.91
2022-08-02T12:33:20.813Z,28.91
2022-08-02T12:35:47.974Z,28.57
2022-08-02T12:38:15.204Z,28.90
2022-08-02T12:40:42.853Z,28.75
2022-08-02T12:43:17.397Z,28.84
2022-08-02T12:45:54.606Z,28.93
2022-08-02T12:48:37.829Z,29.00
2022-08-02T12:51:18.734Z,29.12
2022-08-02T12:53:45.845Z,28.50
2022-08-02T12:56:12.829Z,28.52
2022-08-02T12:58:49.809Z,28.46
2022-08-02T13:01:24.004Z,28.56
2022-08-02T13:04:09.706Z,28.69
2022-08-02T13:06:43.855Z,28.76
2022-08-02T13:09:13.096Z,28.72
2022-08-02T13:11:42.889Z,28.94
2022-08-02T13:14:11.562Z,28.77
2022-08-02T13:16:38.558Z,29.11
2022-08-02T13:19:05.646Z,29.26
2022-08-02T13:21:40.770Z,29.18
2022-08-02T13:24:38.386Z,29.16
2022-08-02T13:27:08.120Z,29.26
2022-08-02T13:29:36.072Z,29.41
2022-08-02T13:32:03.215Z,29.52
2022-08-02T13:34:30.223Z,29.32
2022-08-02T13:36:57.308Z,29.35
2022-08-02T13:39:24.396Z,29.70
2022-08-02T13:41:51.575Z,29.88
2022-08-02T13:44:18.634Z,29.84
2022-08-02T13:46:46.208Z,29.97
2022-08-02T13:49:18.797Z,29.97
2022-08-02T13:51:50.072Z,30.26
2022-08-02T13:54:17.563Z,29.93
2022-08-02T13:56:44.778Z,29.90
2022-08-02T13:59:54.281Z,29.83
2022-08-02T14:01:59.671Z,29.90
2022-08-02T14:04:27.053Z,29.86
2022-08-02T14:06:54.158Z,29.77
2022-08-02T14:11:46.608Z,29.65
2022-08-02T14:14:16.295Z,29.64
2022-08-02T14:16:45.375Z,29.60
2022-08-02T14:19:15.608Z,29.49
2022-08-02T14:21:46.053Z,29.62
2022-08-02T14:24:19.232Z,29.92
2022-08-02T14:26:47.386Z,29.95
2022-08-02T14:29:16.176Z,29.85
2022-08-02T14:31:44.980Z,29.79
2022-08-02T14:34:13.255Z,29.73
2022-08-02T14:36:40.951Z,29.83
2022-08-02T14:39:08.363Z,29.84
2022-08-02T14:41:58.187Z,29.79
2022-08-02T14:44:24.159Z,29.83
2022-08-02T14:46:52.457Z,29.74
2022-08-02T14:49:26.005Z,29.81
2022-08-02T14:51:54.812Z,29.78
2022-08-02T14:54:30.435Z,29.69
2022-08-02T14:56:59.555Z,29.95
2022-08-02T14:59:27.888Z,30.08
2022-08-02T15:01:55.250Z,29.91
2022-08-02T15:04:22.717Z,30.01
2022-08-02T15:06:49.971Z,30.04
2022-08-02T15:09:17.473Z,30.15
2022-08-02T15:11:47.736Z,30.06
2022-08-02T15:14:25.669Z,29.95
2022-08-02T15:16:57.679Z,29.75
2022-08-02T15:19:56.997Z,29.48
2022-08-02T15:22:19.157Z,29.51
2022-08-02T15:24:48.062Z,29.45
2022-08-02T15:27:16.169Z,29.20
2022-08-02T15:29:44.905Z,28.87
2022-08-02T15:32:13.614Z,28.50
2022-08-02T15:34:41.184Z,28.24
2022-08-02T15:37:08.456Z,28.07
2022-08-02T15:39:37.118Z,27.91
2022-08-02T15:42:04.395Z,27.78
2022-08-02T15:44:31.598Z,27.82
2022-08-02T15:46:58.937Z,28.07
2022-08-02T15:49:26.201Z,28.28
2022-08-02T15:51:54.394Z,28.58
2022-08-02T15:54:21.629Z,28.67
2022-08-02T15:56:48.918Z,28.50
2022-08-02T15:59:16.254Z,28.41
2022-08-02T16:01:47.513Z,28.36
2022-08-02T16:04:16.454Z,28.23
2022-08-02T16:06:44.215Z,28.53
2022-08-02T16:09:11.742Z,28.56
2022-08-02T16:11:38.808Z,28.63
2022-08-02T16:14:06.338Z,28.54
2022-08-02T16:16:35.852Z,28.46
2022-08-02T16:19:46.039Z,28.33
2022-08-02T16:21:53.556Z,28.22
2022-08-02T16:24:21.311Z,28.11
2022-08-02T16:26:48.782Z,28.30
2022-08-02T16:29:19.281Z,28.33
2022-08-02T16:31:47.712Z,28.50
2022-08-02T16:34:15.628Z,28.39
2022-08-02T16:36:42.882Z,28.34
2022-08-02T16:39:10.271Z,28.37
2022-08-02T16:41:50.760Z,28.39
2022-08-02T16:44:29.610Z,28.47
2022-08-02T16:47:01.359Z,28.54
2022-08-02T16:50:04.148Z,28.49
2022-08-02T16:52:19.009Z,28.44
2022-08-02T16:57:43.344Z,28.20
2022-08-02T17:00:15.388Z,28.15
2022-08-02T17:02:43.733Z,28.06
2022-08-02T17:08:08.157Z,27.82
2022-08-02T17:10:44.978Z,27.51
2022-08-02T17:13:12.307Z,27.48
2022-08-02T17:16:00.873Z,27.48
2022-08-02T17:18:31.175Z,27.42
2022-08-02T17:20:58.560Z,27.28
2022-08-02T17:24:02.834Z,27.11
2022-08-02T17:26:13.680Z,27.00
2022-08-02T17:29:03.725Z,26.94
2022-08-02T17:31:30.189Z,26.80
2022-08-02T17:34:04.684Z,26.72
2022-08-02T17:36:32.565Z,26.76
2022-08-02T17:38:59.794Z,26.88
2022-08-02T17:41:38.182Z,26.78
2022-08-02T17:44:08.667Z,26.68
2022-08-02T17:46:36.064Z,26.64
2022-08-02T17:49:17.284Z,26.62
2022-08-02T17:52:48.589Z,26.64
2022-08-02T17:54:41.758Z,26.60
2022-08-02T17:57:11.322Z,26.57
2022-08-02T17:59:42.039Z,26.55
2022-08-02T18:02:11.142Z,26.49
2022-08-02T18:04:38.945Z,26.46
2022-08-02T18:07:09.495Z,26.40
2022-08-02T18:09:39.592Z,26.32
2022-08-02T18:12:14.445Z,26.22
2022-08-02T18:14:48.899Z,26.14
2022-08-02T18:17:16.895Z,26.05
2022-08-02T18:19:57.228Z,25.99
2022-08-02T18:22:30.730Z,25.94
2022-08-02T18:24:57.987Z,25.92
2022-08-02T18:27:25.359Z,25.88
2022-08-02T18:30:00.322Z,25.75
2022-08-02T18:33:55.500Z,25.62
2022-08-02T18:35:20.151Z,25.50
2022-08-02T18:37:56.911Z,25.43
2022-08-02T18:40:28.558Z,25.36
2022-08-02T18:42:55.699Z,25.28
2022-08-02T18:45:22.935Z,25.27
2022-08-02T18:47:51.410Z,25.16
2022-08-02T18:50:19.845Z,25.06
2022-08-02T18:52:48.361Z,24.98
2022-08-02T18:55:17.194Z,24.89
2022-08-02T18:58:19.785Z,24.81
2022-08-02T19:00:51.704Z,24.78
2022-08-02T19:03:19.869Z,24.74
2022-08-02T19:05:53.681Z,24.69
2022-08-02T19:08:25.483Z,24.67
2022-08-02T19:10:55.159Z,24.57
2022-08-02T19:13:24.133Z,24.53
2022-08-02T19:15:52.488Z,24.50
2022-08-02T19:18:20.225Z,24.40
2022-08-02T19:20:58.233Z,24.33
2022-08-02T19:23:29.839Z,24.30
2022-08-02T19:25:57.652Z,24.27
2022-08-02T19:28:26.226Z,24.26
2022-08-02T19:30:57.559Z,24.22
2022-08-02T19:34:06.280Z,24.16
2022-08-02T19:36:12.899Z,24.07
2022-08-02T19:38:45.432Z,24.08
2022-08-02T19:41:14.379Z,24.00
2022-08-02T19:44:26.323Z,23.93
2022-08-02T19:46:31.651Z,24.02
2022-08-02T19:49:01.076Z,23.93
2022-08-02T19:51:49.597Z,23.89
2022-08-02T19:54:22.871Z,23.80
2022-08-02T19:57:10.352Z,23.72
2022-08-02T19:59:41.068Z,23.70
2022-08-02T20:02:08.260Z,23.68
2022-08-02T20:04:38.002Z,23.85
2022-08-02T20:07:05.224Z,23.72
2022-08-02T20:09:46.893Z,23.56
2022-08-02T20:12:15.142Z,23.41
2022-08-02T20:14:50.833Z,23.31
2022-08-02T20:17:20.888Z,23.22
2022-08-02T20:19:48.592Z,23.15
2022-08-02T20:22:16.572Z,23.13
2022-08-02T20:24:44.044Z,23.10
2022-08-02T20:27:17.039Z,23.11
2022-08-02T20:29:55.939Z,23.04
2022-08-02T20:32:23.874Z,22.99
2022-08-02T20:34:51.295Z,23.00
2022-08-02T20:38:01.137Z,22.97
2022-08-02T20:40:08.341Z,23.05
2022-08-02T20:42:35.595Z,23.08
2022-08-02T20:45:04.609Z,23.12
2022-08-02T20:47:39.805Z,23.11
2022-08-02T20:53:24.143Z,23.26
2022-08-02T20:55:57.423Z,23.24
2022-08-02T20:58:27.308Z,23.20
2022-08-02T21:00:59.196Z,23.07
2022-08-02T21:03:38.899Z,22.96
2022-08-02T21:06:14.669Z,23.03
2022-08-02T21:08:42.329Z,23.04
2022-08-02T21:14:07.734Z,23.20
2022-08-02T21:16:36.937Z,23.25
2022-08-02T21:19:07.938Z,23.14
2022-08-02T21:21:37.409Z,23.05
2022-08-02T21:24:04.898Z,22.95
2022-08-02T21:26:32.479Z,22.84
2022-08-02T21:29:03.289Z,22.77
2022-08-02T21:31:35.501Z,22.72
2022-08-02T21:34:19.245Z,22.64
2022-08-02T21:36:50.515Z,22.69
2022-08-02T21:39:17.829Z,22.94
2022-08-02T21:41:46.291Z,23.12
2022-08-02T21:44:18.870Z,23.15
2022-08-02T21:46:49.247Z,23.24
2022-08-02T21:49:18.399Z,23.17
2022-08-02T21:51:49.575Z,23.21
2022-08-02T21:54:21.257Z,23.17
2022-08-02T21:56:52.203Z,23.16
2022-08-02T21:59:26.252Z,23.12
2022-08-02T22:01:56.863Z,23.05
2022-08-02T22:04:27.869Z,23.00
2022-08-02T22:06:55.612Z,22.92
2022-08-02T22:09:43.228Z,22.90
2022-08-02T22:12:12.668Z,23.03
2022-08-02T22:14:49.714Z,23.03
2022-08-02T22:17:53.307Z,22.96
2022-08-02T22:20:21.377Z,22.98
2022-08-02T22:22:50.624Z,22.86
2022-08-02T22:25:26.928Z,22.81
2022-08-02T22:28:35.209Z,22.65
2022-08-02T22:30:55.298Z,22.50
2022-08-02T22:33:47.294Z,22.34
2022-08-02T22:36:28.151Z,22.16
2022-08-02T22:38:55.981Z,22.05
2022-08-02T22:41:23.085Z,22.10
2022-08-02T22:43:50.784Z,22.07
2022-08-02T22:46:17.997Z,22.09
2022-08-02T22:48:45.698Z,22.16
2022-08-02T22:51:13.627Z,22.03
2022-08-02T22:53:42.450Z,21.97
2022-08-02T22:56:10.346Z,21.99
2022-08-02T22:58:35.575Z,28.42
2022-08-02T22:58:36.523Z,28.04
2022-08-02T22:59:02.071Z,23.11
2022-08-02T22:59:08.351Z,23.16
2022-08-02T23:01:25.476Z,21.87
2022-08-02T23:03:52.728Z,21.79
2022-08-02T23:06:22.646Z,21.77
2022-08-02T23:08:50.402Z,21.69
2022-08-02T23:11:17.646Z,21.65
2022-08-02T23:13:44.832Z,21.62
2022-08-02T23:16:31.124Z,21.65
2022-08-02T23:19:16.986Z,21.53
2022-08-02T23:22:01.579Z,21.48
2022-08-02T23:24:33.493Z,21.36
2022-08-02T23:27:02.265Z,21.28
2022-08-02T23:29:29.436Z,21.30
2022-08-02T23:31:56.608Z,21.47
2022-08-02T23:34:23.723Z,21.34
2022-08-02T23:36:51.081Z,21.28
2022-08-02T23:39:18.182Z,21.21
2022-08-02T23:41:45.280Z,21.06
2022-08-02T23:44:21.738Z,21.11
2022-08-02T23:46:48.832Z,21.23
2022-08-02T23:49:16.943Z,21.29
2022-08-02T23:51:44.420Z,21.24
2022-08-02T23:54:13.148Z,21.26
2022-08-02T23:56:40.856Z,21.17
2022-08-02T23:59:08.215Z,21.19
